sensor_id;sensor_type;location;lat;lon;timestamp;temperature;humidity
22426;DHT22;11380;50.822;15.790;2023-04-06T00:03:15;-0.90;1.00
22426;DHT22;11380;50.822;15.790;2023-04-06T00:08:22;-1.00;1.00
22426;DHT22;11380;50.822;15.790;2023-04-06T00:13:31;-0.80;1.00
22426;DHT22;11380;50.822;15.790;2023-04-06T00:18:40;-1.00;1.00
22426;DHT22;11380;50.822;15.790;2023-04-06T00:23:48;-1.00;1.00
22426;DHT22;11380;50.822;15.790;2023-04-06T00:28:55;-1.10;1.00
22426;DHT22;11380;50.822;15.790;2023-04-06T00:34:05;-1.00;1.00
22426;DHT22;11380;50.822;15.790;2023-04-06T00:39:12;-0.90;1.00
22426;DHT22;11380;50.822;15.790;2023-04-06T00:44:23;-1.00;99.90
22426;DHT22;11380;50.822;15.790;2023-04-06T00:49:32;-1.20;99.90
22426;DHT22;11380;50.822;15.790;2023-04-06T00:54:42;-1.00;1.00
22426;DHT22;11380;50.822;15.790;2023-04-06T00:59:49;-1.00;1.00
22426;DHT22;11380;50.822;15.790;2023-04-06T01:04:59;-1.20;1.00
22426;DHT22;11380;50.822;15.790;2023-04-06T01:10:07;-1.40;1.00
22426;DHT22;11380;50.822;15.790;2023-04-06T01:15:15;-1.60;1.00
22426;DHT22;11380;50.822;15.790;2023-04-06T01:20:22;-1.80;1.00
22426;DHT22;11380;50.822;15.790;2023-04-06T01:25:31;-1.70;1.00
22426;DHT22;11380;50.822;15.790;2023-04-06T01:30:38;-1.40;1.00
22426;DHT22;11380;50.822;15.790;2023-04-06T01:35:46;-1.80;1.00
22426;DHT22;11380;50.822;15.790;2023-04-06T01:40:54;-1.80;99.90
22426;DHT22;11380;50.822;15.790;2023-04-06T01:46:03;-2.30;1.00
22426;DHT22;11380;50.822;15.790;2023-04-06T01:51:11;-2.10;1.00
22426;DHT22;11380;50.822;15.790;2023-04-06T01:56:18;-2.00;1.00
22426;DHT22;11380;50.822;15.790;2023-04-06T02:01:26;-1.90;1.00
22426;DHT22;11380;50.822;15.790;2023-04-06T02:06:33;-2.00;1.00
22426;DHT22;11380;50.822;15.790;2023-04-06T02:11:42;-2.30;1.00
22426;DHT22;11380;50.822;15.790;2023-04-06T02:16:51;-2.30;1.00
22426;DHT22;11380;50.822;15.790;2023-04-06T02:22:00;-2.10;1.00
22426;DHT22;11380;50.822;15.790;2023-04-06T02:27:07;-2.30;1.00
22426;DHT22;11380;50.822;15.790;2023-04-06T02:32:15;-2.40;1.00
22426;DHT22;11380;50.822;15.790;2023-04-06T02:37:23;-2.40;1.00
22426;DHT22;11380;50.822;15.790;2023-04-06T02:42:32;-2.30;1.00
22426;DHT22;11380;50.822;15.790;2023-04-06T02:47:41;-2.40;1.00
22426;DHT22;11380;50.822;15.790;2023-04-06T02:52:49;-2.10;1.00
22426;DHT22;11380;50.822;15.790;2023-04-06T02:57:59;-2.10;1.00
22426;DHT22;11380;50.822;15.790;2023-04-06T03:03:07;-2.30;1.00
22426;DHT22;11380;50.822;15.790;2023-04-06T03:08:14;-2.60;1.00
22426;DHT22;11380;50.822;15.790;2023-04-06T03:13:22;-2.40;1.00
22426;DHT22;11380;50.822;15.790;2023-04-06T03:18:29;-2.30;1.00
22426;DHT22;11380;50.822;15.790;2023-04-06T03:23:36;-2.30;1.00
22426;DHT22;11380;50.822;15.790;2023-04-06T03:28:44;-2.20;1.00
22426;DHT22;11380;50.822;15.790;2023-04-06T03:33:51;-2.20;1.00
22426;DHT22;11380;50.822;15.790;2023-04-06T03:38:59;-2.80;1.00
22426;DHT22;11380;50.822;15.790;2023-04-06T03:44:07;-2.50;1.00
22426;DHT22;11380;50.822;15.790;2023-04-06T03:49:14;-2.80;1.00
22426;DHT22;11380;50.822;15.790;2023-04-06T03:54:23;-2.60;1.00
22426;DHT22;11380;50.822;15.790;2023-04-06T03:59:31;-2.60;1.00
22426;DHT22;11380;50.822;15.790;2023-04-06T04:04:38;-2.80;1.00
22426;DHT22;11380;50.822;15.790;2023-04-06T04:09:45;-2.70;1.00
22426;DHT22;11380;50.822;15.790;2023-04-06T04:14:53;-2.60;1.00
22426;DHT22;11380;50.822;15.790;2023-04-06T04:20:00;-3.00;1.00
22426;DHT22;11380;50.822;15.790;2023-04-06T04:25:09;-3.20;1.00
22426;DHT22;11380;50.822;15.790;2023-04-06T04:30:17;-3.00;1.00
22426;DHT22;11380;50.822;15.790;2023-04-06T04:35:26;-3.20;99.90
22426;DHT22;11380;50.822;15.790;2023-04-06T04:40:32;-3.50;1.00
22426;DHT22;11380;50.822;15.790;2023-04-06T04:45:38;-3.70;1.00
22426;DHT22;11380;50.822;15.790;2023-04-06T04:50:46;-3.30;1.00
22426;DHT22;11380;50.822;15.790;2023-04-06T04:55:54;-3.10;1.00
22426;DHT22;11380;50.822;15.790;2023-04-06T05:01:02;-2.80;1.00
22426;DHT22;11380;50.822;15.790;2023-04-06T05:06:09;-2.70;1.00
22426;DHT22;11380;50.822;15.790;2023-04-06T05:11:21;-2.80;1.00
22426;DHT22;11380;50.822;15.790;2023-04-06T05:16:28;-2.80;1.00
22426;DHT22;11380;50.822;15.790;2023-04-06T05:21:35;-2.70;1.00
22426;DHT22;11380;50.822;15.790;2023-04-06T05:26:43;-2.60;1.00
22426;DHT22;11380;50.822;15.790;2023-04-06T05:31:51;-2.00;1.00
22426;DHT22;11380;50.822;15.790;2023-04-06T05:36:58;-1.60;1.00
22426;DHT22;11380;50.822;15.790;2023-04-06T05:42:06;-1.30;1.00
22426;DHT22;11380;50.822;15.790;2023-04-06T05:47:15;-1.00;1.00
22426;DHT22;11380;50.822;15.790;2023-04-06T05:52:23;-0.80;1.00
22426;DHT22;11380;50.822;15.790;2023-04-06T05:57:31;-0.70;1.00
22426;DHT22;11380;50.822;15.790;2023-04-06T06:02:38;-0.20;1.00
22426;DHT22;11380;50.822;15.790;2023-04-06T06:07:48;0.00;1.00
22426;DHT22;11380;50.822;15.790;2023-04-06T06:12:55;0.40;14.60
22426;DHT22;11380;50.822;15.790;2023-04-06T06:18:03;0.70;16.10
22426;DHT22;11380;50.822;15.790;2023-04-06T06:23:11;0.70;5.40
22426;DHT22;11380;50.822;15.790;2023-04-06T06:28:19;0.80;1.00
22426;DHT22;11380;50.822;15.790;2023-04-06T06:33:27;1.40;6.80
22426;DHT22;11380;50.822;15.790;2023-04-06T06:38:35;1.70;24.30
22426;DHT22;11380;50.822;15.790;2023-04-06T06:43:43;1.30;52.80
22426;DHT22;11380;50.822;15.790;2023-04-06T06:48:51;1.60;39.10
22426;DHT22;11380;50.822;15.790;2023-04-06T06:53:57;1.90;52.00
22426;DHT22;11380;50.822;15.790;2023-04-06T06:59:05;2.50;44.00
22426;DHT22;11380;50.822;15.790;2023-04-06T07:04:13;2.40;56.80
22426;DHT22;11380;50.822;15.790;2023-04-06T07:09:21;3.00;40.80
22426;DHT22;11380;50.822;15.790;2023-04-06T07:14:27;3.30;52.80
22426;DHT22;11380;50.822;15.790;2023-04-06T07:19:35;3.10;26.20
22426;DHT22;11380;50.822;15.790;2023-04-06T07:24:55;4.00;29.80
22426;DHT22;11380;50.822;15.790;2023-04-06T07:30:04;4.40;39.50
22426;DHT22;11380;50.822;15.790;2023-04-06T07:35:12;3.90;38.50
22426;DHT22;11380;50.822;15.790;2023-04-06T07:40:19;4.90;16.20
22426;DHT22;11380;50.822;15.790;2023-04-06T07:45:26;5.20;8.10
22426;DHT22;11380;50.822;15.790;2023-04-06T07:50:33;5.30;1.00
22426;DHT22;11380;50.822;15.790;2023-04-06T07:55:40;6.00;1.00
22426;DHT22;11380;50.822;15.790;2023-04-06T08:00:47;6.30;40.20
22426;DHT22;11380;50.822;15.790;2023-04-06T08:05:54;6.10;34.30
22426;DHT22;11380;50.822;15.790;2023-04-06T08:11:01;5.60;57.40
22426;DHT22;11380;50.822;15.790;2023-04-06T08:16:09;5.40;65.70
22426;DHT22;11380;50.822;15.790;2023-04-06T08:21:16;5.60;77.20
22426;DHT22;11380;50.822;15.790;2023-04-06T08:26:24;4.60;66.70
22426;DHT22;11380;50.822;15.790;2023-04-06T08:31:31;4.40;71.30
22426;DHT22;11380;50.822;15.790;2023-04-06T08:36:38;5.60;76.90
22426;DHT22;11380;50.822;15.790;2023-04-06T08:41:46;6.90;79.30
22426;DHT22;11380;50.822;15.790;2023-04-06T08:46:53;5.60;75.90
22426;DHT22;11380;50.822;15.790;2023-04-06T08:52:00;7.00;76.10
22426;DHT22;11380;50.822;15.790;2023-04-06T08:57:08;6.10;73.20
22426;DHT22;11380;50.822;15.790;2023-04-06T09:02:19;5.80;80.80
22426;DHT22;11380;50.822;15.790;2023-04-06T09:07:28;7.20;78.00
22426;DHT22;11380;50.822;15.790;2023-04-06T09:12:35;7.10;78.70
22426;DHT22;11380;50.822;15.790;2023-04-06T09:17:42;6.90;77.70
22426;DHT22;11380;50.822;15.790;2023-04-06T09:22:50;6.70;82.60
22426;DHT22;11380;50.822;15.790;2023-04-06T09:28:02;7.10;80.50
22426;DHT22;11380;50.822;15.790;2023-04-06T09:33:11;6.80;76.20
22426;DHT22;11380;50.822;15.790;2023-04-06T09:38:18;6.80;79.40
22426;DHT22;11380;50.822;15.790;2023-04-06T09:43:30;7.20;81.20
22426;DHT22;11380;50.822;15.790;2023-04-06T09:48:35;7.10;83.40
22426;DHT22;11380;50.822;15.790;2023-04-06T09:53:45;7.00;81.60
22426;DHT22;11380;50.822;15.790;2023-04-06T09:59:01;7.90;76.60
22426;DHT22;11380;50.822;15.790;2023-04-06T10:09:37;9.00;71.40
22426;DHT22;11380;50.822;15.790;2023-04-06T10:14:46;9.70;72.50
22426;DHT22;11380;50.822;15.790;2023-04-06T10:19:59;9.00;76.80
22426;DHT22;11380;50.822;15.790;2023-04-06T10:25:08;7.50;75.30
22426;DHT22;11380;50.822;15.790;2023-04-06T10:30:15;8.60;74.70
22426;DHT22;11380;50.822;15.790;2023-04-06T10:35:23;8.60;77.40
22426;DHT22;11380;50.822;15.790;2023-04-06T10:40:32;9.00;72.00
22426;DHT22;11380;50.822;15.790;2023-04-06T10:45:44;9.70;75.10
22426;DHT22;11380;50.822;15.790;2023-04-06T10:50:53;9.30;67.70
22426;DHT22;11380;50.822;15.790;2023-04-06T10:56:00;10.40;68.30
22426;DHT22;11380;50.822;15.790;2023-04-06T11:01:11;8.50;70.90
22426;DHT22;11380;50.822;15.790;2023-04-06T11:06:19;7.30;70.60
22426;DHT22;11380;50.822;15.790;2023-04-06T11:11:27;7.70;73.10
22426;DHT22;11380;50.822;15.790;2023-04-06T11:16:34;8.60;67.70
22426;DHT22;11380;50.822;15.790;2023-04-06T11:21:43;9.60;71.20
22426;DHT22;11380;50.822;15.790;2023-04-06T11:26:58;9.30;68.40
22426;DHT22;11380;50.822;15.790;2023-04-06T11:32:09;9.40;72.30
22426;DHT22;11380;50.822;15.790;2023-04-06T11:37:17;8.80;69.80
22426;DHT22;11380;50.822;15.790;2023-04-06T11:42:26;8.70;74.10
22426;DHT22;11380;50.822;15.790;2023-04-06T11:47:36;9.30;69.80
22426;DHT22;11380;50.822;15.790;2023-04-06T11:52:44;9.00;71.50
22426;DHT22;11380;50.822;15.790;2023-04-06T11:57:53;9.50;73.50
22426;DHT22;11380;50.822;15.790;2023-04-06T12:03:02;10.00;67.40
22426;DHT22;11380;50.822;15.790;2023-04-06T12:08:09;9.50;67.50
22426;DHT22;11380;50.822;15.790;2023-04-06T12:13:17;8.60;67.50
22426;DHT22;11380;50.822;15.790;2023-04-06T12:18:26;7.00;68.20
22426;DHT22;11380;50.822;15.790;2023-04-06T12:23:33;7.30;72.50
22426;DHT22;11380;50.822;15.790;2023-04-06T12:28:41;8.20;69.20
22426;DHT22;11380;50.822;15.790;2023-04-06T12:33:50;9.30;68.90
22426;DHT22;11380;50.822;15.790;2023-04-06T12:38:59;9.40;69.50
22426;DHT22;11380;50.822;15.790;2023-04-06T12:44:07;10.40;72.40
22426;DHT22;11380;50.822;15.790;2023-04-06T12:49:15;9.40;69.90
22426;DHT22;11380;50.822;15.790;2023-04-06T12:54:24;7.80;70.10
22426;DHT22;11380;50.822;15.790;2023-04-06T12:59:32;8.30;70.60
22426;DHT22;11380;50.822;15.790;2023-04-06T13:04:40;7.20;71.50
22426;DHT22;11380;50.822;15.790;2023-04-06T13:09:48;7.40;70.40
22426;DHT22;11380;50.822;15.790;2023-04-06T13:14:55;8.00;74.30
22426;DHT22;11380;50.822;15.790;2023-04-06T13:20:03;9.00;71.20
22426;DHT22;11380;50.822;15.790;2023-04-06T13:25:11;10.00;71.60
22426;DHT22;11380;50.822;15.790;2023-04-06T13:30:19;9.90;68.50
22426;DHT22;11380;50.822;15.790;2023-04-06T13:35:26;9.60;69.80
22426;DHT22;11380;50.822;15.790;2023-04-06T13:40:34;9.80;72.50
22426;DHT22;11380;50.822;15.790;2023-04-06T13:45:48;8.90;70.40
22426;DHT22;11380;50.822;15.790;2023-04-06T13:50:56;8.90;74.20
22426;DHT22;11380;50.822;15.790;2023-04-06T13:56:03;7.60;70.50
22426;DHT22;11380;50.822;15.790;2023-04-06T14:01:12;6.60;74.20
22426;DHT22;11380;50.822;15.790;2023-04-06T14:06:19;6.40;75.30
22426;DHT22;11380;50.822;15.790;2023-04-06T14:11:28;6.50;77.00
22426;DHT22;11380;50.822;15.790;2023-04-06T14:16:36;6.60;78.00
22426;DHT22;11380;50.822;15.790;2023-04-06T14:21:43;7.60;74.00
22426;DHT22;11380;50.822;15.790;2023-04-06T14:26:51;7.30;77.40
22426;DHT22;11380;50.822;15.790;2023-04-06T14:31:58;8.30;73.30
22426;DHT22;11380;50.822;15.790;2023-04-06T14:37:07;7.30;71.60
22426;DHT22;11380;50.822;15.790;2023-04-06T14:42:15;7.20;77.40
22426;DHT22;11380;50.822;15.790;2023-04-06T14:47:22;7.90;75.60
22426;DHT22;11380;50.822;15.790;2023-04-06T14:52:30;8.10;71.00
22426;DHT22;11380;50.822;15.790;2023-04-06T14:57:37;8.70;73.20
22426;DHT22;11380;50.822;15.790;2023-04-06T15:02:45;8.10;72.90
22426;DHT22;11380;50.822;15.790;2023-04-06T15:07:54;7.70;74.60
22426;DHT22;11380;50.822;15.790;2023-04-06T15:13:02;7.20;77.50
22426;DHT22;11380;50.822;15.790;2023-04-06T15:18:10;7.40;77.50
22426;DHT22;11380;50.822;15.790;2023-04-06T15:23:17;6.90;75.40
22426;DHT22;11380;50.822;15.790;2023-04-06T15:28:26;7.00;75.00
22426;DHT22;11380;50.822;15.790;2023-04-06T15:33:33;6.80;74.70
22426;DHT22;11380;50.822;15.790;2023-04-06T15:38:41;6.40;75.70
22426;DHT22;11380;50.822;15.790;2023-04-06T15:43:49;6.90;78.80
22426;DHT22;11380;50.822;15.790;2023-04-06T15:48:58;7.00;78.90
22426;DHT22;11380;50.822;15.790;2023-04-06T15:54:06;7.20;77.70
22426;DHT22;11380;50.822;15.790;2023-04-06T15:59:14;7.20;76.80
22426;DHT22;11380;50.822;15.790;2023-04-06T16:04:23;7.70;77.00
22426;DHT22;11380;50.822;15.790;2023-04-06T16:09:31;7.60;74.80
22426;DHT22;11380;50.822;15.790;2023-04-06T16:14:39;6.80;77.30
22426;DHT22;11380;50.822;15.790;2023-04-06T16:19:46;6.60;76.90
22426;DHT22;11380;50.822;15.790;2023-04-06T16:24:55;7.00;77.00
22426;DHT22;11380;50.822;15.790;2023-04-06T16:30:03;6.60;76.00
22426;DHT22;11380;50.822;15.790;2023-04-06T16:35:13;6.20;76.70
22426;DHT22;11380;50.822;15.790;2023-04-06T16:40:21;6.10;77.00
22426;DHT22;11380;50.822;15.790;2023-04-06T16:45:29;6.50;79.00
22426;DHT22;11380;50.822;15.790;2023-04-06T16:50:37;6.20;77.40
22426;DHT22;11380;50.822;15.790;2023-04-06T16:55:45;6.20;79.00
22426;DHT22;11380;50.822;15.790;2023-04-06T17:00:53;6.20;78.90
22426;DHT22;11380;50.822;15.790;2023-04-06T17:06:01;5.90;79.30
22426;DHT22;11380;50.822;15.790;2023-04-06T17:11:14;5.80;81.20
22426;DHT22;11380;50.822;15.790;2023-04-06T17:16:25;5.40;81.20
22426;DHT22;11380;50.822;15.790;2023-04-06T17:21:33;5.40;81.60
22426;DHT22;11380;50.822;15.790;2023-04-06T17:26:40;5.50;82.10
22426;DHT22;11380;50.822;15.790;2023-04-06T17:31:49;5.60;82.40
22426;DHT22;11380;50.822;15.790;2023-04-06T17:36:57;5.30;82.60
22426;DHT22;11380;50.822;15.790;2023-04-06T17:42:04;5.10;83.00
22426;DHT22;11380;50.822;15.790;2023-04-06T17:47:12;5.00;84.00
22426;DHT22;11380;50.822;15.790;2023-04-06T17:52:19;4.80;85.10
22426;DHT22;11380;50.822;15.790;2023-04-06T17:57:28;4.90;85.20
22426;DHT22;11380;50.822;15.790;2023-04-06T18:02:36;4.90;85.30
22426;DHT22;11380;50.822;15.790;2023-04-06T18:07:46;5.00;89.00
22426;DHT22;11380;50.822;15.790;2023-04-06T18:12:54;4.10;91.60
22426;DHT22;11380;50.822;15.790;2023-04-06T18:18:02;3.60;93.30
22426;DHT22;11380;50.822;15.790;2023-04-06T18:23:11;3.50;94.00
22426;DHT22;11380;50.822;15.790;2023-04-06T18:28:20;3.20;93.70
22426;DHT22;11380;50.822;15.790;2023-04-06T18:33:28;3.40;94.90
22426;DHT22;11380;50.822;15.790;2023-04-06T18:38:40;2.90;94.90
22426;DHT22;11380;50.822;15.790;2023-04-06T18:43:50;2.90;94.90
22426;DHT22;11380;50.822;15.790;2023-04-06T18:48:57;2.60;98.40
22426;DHT22;11380;50.822;15.790;2023-04-06T18:54:05;2.40;99.80
22426;DHT22;11380;50.822;15.790;2023-04-06T18:59:15;2.20;99.90
22426;DHT22;11380;50.822;15.790;2023-04-06T19:04:23;2.50;99.90
22426;DHT22;11380;50.822;15.790;2023-04-06T19:09:31;2.50;99.90
22426;DHT22;11380;50.822;15.790;2023-04-06T19:14:38;2.40;99.90
22426;DHT22;11380;50.822;15.790;2023-04-06T19:19:48;2.50;98.10
22426;DHT22;11380;50.822;15.790;2023-04-06T19:24:56;2.10;99.10
22426;DHT22;11380;50.822;15.790;2023-04-06T19:30:06;2.20;99.90
22426;DHT22;11380;50.822;15.790;2023-04-06T19:35:17;1.90;99.90
22426;DHT22;11380;50.822;15.790;2023-04-06T19:40:25;1.60;99.90
22426;DHT22;11380;50.822;15.790;2023-04-06T19:45:33;1.50;99.90
22426;DHT22;11380;50.822;15.790;2023-04-06T19:50:41;1.40;99.90
22426;DHT22;11380;50.822;15.790;2023-04-06T19:55:50;1.30;99.90
22426;DHT22;11380;50.822;15.790;2023-04-06T20:00:58;1.70;99.90
22426;DHT22;11380;50.822;15.790;2023-04-06T20:06:13;1.70;99.90
22426;DHT22;11380;50.822;15.790;2023-04-06T20:11:23;1.60;99.90
22426;DHT22;11380;50.822;15.790;2023-04-06T20:16:34;1.50;99.90
22426;DHT22;11380;50.822;15.790;2023-04-06T20:21:42;1.60;99.90
22426;DHT22;11380;50.822;15.790;2023-04-06T20:26:50;1.80;99.90
22426;DHT22;11380;50.822;15.790;2023-04-06T20:31:57;1.40;99.90
22426;DHT22;11380;50.822;15.790;2023-04-06T20:37:06;1.40;99.90
22426;DHT22;11380;50.822;15.790;2023-04-06T20:42:12;1.20;99.90
22426;DHT22;11380;50.822;15.790;2023-04-06T20:47:21;0.90;99.90
22426;DHT22;11380;50.822;15.790;2023-04-06T20:52:29;1.30;99.90
22426;DHT22;11380;50.822;15.790;2023-04-06T20:57:36;1.30;99.90
22426;DHT22;11380;50.822;15.790;2023-04-06T21:02:47;0.80;1.00
22426;DHT22;11380;50.822;15.790;2023-04-06T21:07:55;0.90;1.00
22426;DHT22;11380;50.822;15.790;2023-04-06T21:13:03;0.90;33.00
22426;DHT22;11380;50.822;15.790;2023-04-06T21:18:10;1.20;65.70
22426;DHT22;11380;50.822;15.790;2023-04-06T21:23:17;1.10;99.90
22426;DHT22;11380;50.822;15.790;2023-04-06T21:28:28;1.10;1.00
22426;DHT22;11380;50.822;15.790;2023-04-06T21:33:35;1.00;1.00
22426;DHT22;11380;50.822;15.790;2023-04-06T21:38:43;0.90;31.40
22426;DHT22;11380;50.822;15.790;2023-04-06T21:43:51;1.00;15.90
22426;DHT22;11380;50.822;15.790;2023-04-06T21:48:58;1.00;99.90
22426;DHT22;11380;50.822;15.790;2023-04-06T21:54:05;0.80;49.80
22426;DHT22;11380;50.822;15.790;2023-04-06T21:59:15;1.10;99.90
22426;DHT22;11380;50.822;15.790;2023-04-06T22:04:24;1.00;99.90
22426;DHT22;11380;50.822;15.790;2023-04-06T22:09:34;1.10;41.00
22426;DHT22;11380;50.822;15.790;2023-04-06T22:14:41;1.10;1.00
22426;DHT22;11380;50.822;15.790;2023-04-06T22:19:48;1.30;97.60
22426;DHT22;11380;50.822;15.790;2023-04-06T22:24:56;1.30;1.00
22426;DHT22;11380;50.822;15.790;2023-04-06T22:30:06;1.40;1.00
22426;DHT22;11380;50.822;15.790;2023-04-06T22:35:14;1.60;9.10
22426;DHT22;11380;50.822;15.790;2023-04-06T22:40:22;1.60;1.00
22426;DHT22;11380;50.822;15.790;2023-04-06T22:45:30;1.70;1.00
22426;DHT22;11380;50.822;15.790;2023-04-06T22:50:38;1.80;13.10
22426;DHT22;11380;50.822;15.790;2023-04-06T22:55:45;1.80;1.00
22426;DHT22;11380;50.822;15.790;2023-04-06T23:00:53;1.90;1.00
22426;DHT22;11380;50.822;15.790;2023-04-06T23:06:01;1.70;1.00
22426;DHT22;11380;50.822;15.790;2023-04-06T23:11:08;1.80;99.90
22426;DHT22;11380;50.822;15.790;2023-04-06T23:16:17;1.70;99.90
22426;DHT22;11380;50.822;15.790;2023-04-06T23:21:24;1.80;99.90
22426;DHT22;11380;50.822;15.790;2023-04-06T23:26:32;1.90;51.30
22426;DHT22;11380;50.822;15.790;2023-04-06T23:31:40;1.70;99.90
22426;DHT22;11380;50.822;15.790;2023-04-06T23:36:48;1.70;99.90
22426;DHT22;11380;50.822;15.790;2023-04-06T23:41:55;1.50;78.20
22426;DHT22;11380;50.822;15.790;2023-04-06T23:47:04;1.40;99.90
22426;DHT22;11380;50.822;15.790;2023-04-06T23:52:11;1.30;1.00
22426;DHT22;11380;50.822;15.790;2023-04-06T23:57:19;1.20;3.80
